Time;durP1;ratioP1;P1;durP2;ratioP2;P2;SDS_P1;SDS_P2;PMS_P1;PMS_P2;Temp;Humidity;BMP_temperature;BMP_pressure;BME280_temperature;BME280_humidity;BME280_pressure;Samples;Min_cycle;Max_cycle;Signal;HPM_P1;HPM_P2
2022/05/25 00:02:00;;;;;;;13.13;10.57;;;;;;;;;;4994897;28;20043;-87
2022/05/25 00:04:25;;;;;;;11.85;10.32;;;;;;;10.23;100.00;67912.38;4989527;28;20073;-86
2022/05/25 00:06:51;;;;;;;13.98;10.05;;;;;;;10.18;100.00;67904.63;4993451;28;20491;-86
2022/05/25 00:09:17;;;;;;;13.50;10.55;;;;;;;10.20;100.00;67909.00;5004378;28;20111;-86
2022/05/25 00:11:42;;;;;;;15.15;12.32;;;;;;;10.21;100.00;67910.69;5005847;28;20045;-86
2022/05/25 00:14:08;;;;;;;13.85;10.73;;;;;;;10.20;100.00;67909.00;5006957;28;20048;-87
2022/05/25 00:16:34;;;;;;;14.13;11.48;;;;;;;10.19;100.00;67907.88;5004286;28;20498;-86
2022/05/25 00:21:43;;;;;;;15.80;11.52;;;;;;;10.13;100.00;67902.19;4983144;28;20049;-86
2022/05/25 00:24:08;;;;;;;14.68;11.23;;;;;;;10.16;100.00;67902.38;4986358;28;20038;-86
2022/05/25 00:26:34;;;;;;;13.38;11.65;;;;;;;10.19;100.00;67905.75;4987385;28;20471;-87
2022/05/25 00:29:01;;;;;;;13.60;11.05;;;;;;;10.22;100.00;67909.16;4992283;28;20138;-86
2022/05/25 00:31:27;;;;;;;14.13;11.32;;;;;;;10.28;100.00;67916.00;4993100;28;20044;-86
2022/05/25 00:33:52;;;;;;;13.35;10.27;;;;;;;10.36;100.00;67927.16;4970886;28;20054;-87
2022/05/25 00:36:17;;;;;;;15.82;10.57;;;;;;;10.31;100.00;67919.41;4976214;28;20432;-87
2022/05/25 00:38:43;;;;;;;14.73;10.65;;;;;;;10.34;100.00;67925.47;4989548;28;20442;-86
2022/05/25 00:41:08;;;;;;;13.57;10.73;;;;;;;10.39;100.00;67927.91;4987165;28;20389;-86
2022/05/25 00:43:33;;;;;;;11.65;10.10;;;;;;;10.36;100.00;67930.41;4986955;28;20054;-87
2022/05/25 00:46:02;;;;;;;16.33;11.30;;;;;;;;;;4983778;28;20038;-86
2022/05/25 00:48:36;;;;;;;12.98;10.55;;;;;;;10.37;100.00;67925.63;5001585;28;20050;-86
2022/05/25 00:51:15;;;;;;;14.27;10.77;;;;;;;10.37;100.00;67925.63;4989737;28;20044;-87
2022/05/25 00:53:44;;;;;;;16.15;10.00;;;;;;;;;;5002079;28;20051;-87
2022/05/25 00:56:14;;;;;;;14.95;10.20;;;;;;;10.33;100.00;67921.66;4996790;28;20041;-88
2022/05/25 00:58:45;;;;;;;14.02;10.48;;;;;;;10.27;100.00;67919.59;4993788;28;20117;-87
2022/05/25 01:01:10;;;;;;;13.55;10.95;;;;;;;10.30;100.00;67923.00;4966561;28;20042;-87
2022/05/25 01:03:36;;;;;;;16.13;11.05;;;;;;;10.27;100.00;67917.53;4974442;28;20058;-86
2022/05/25 01:06:04;;;;;;;14.68;11.73;;;;;;;10.27;100.00;67917.53;5005297;28;20073;-88
2022/05/25 01:09:06;;;;;;;15.60;12.45;;;;;;;10.27;100.00;67914.28;5000580;28;20039;-87
2022/05/25 01:11:32;;;;;;;15.75;13.73;;;;;;;;;;4971441;28;20068;-86
2022/05/25 01:14:04;;;;;;;15.35;13.07;;;;;;;10.30;100.00;67920.94;4997744;28;20547;-86
2022/05/25 01:16:49;;;;;;;14.48;12.10;;;;;;;;;;4985818;28;20043;-86
2022/05/25 01:19:48;;;;;;;16.65;12.30;;;;;;;10.21;100.00;67913.34;4986685;28;20042;-87
2022/05/25 01:22:29;;;;;;;16.23;12.95;;;;;;;10.22;100.00;67914.50;4989683;28;20046;-87
2022/05/25 01:25:12;;;;;;;15.68;11.38;;;;;;;10.20;100.00;67906.91;4982088;28;20049;-87
2022/05/25 01:27:45;;;;;;;15.70;12.25;;;;;;;10.14;100.00;67900.09;4998763;28;20125;-86
2022/05/25 01:30:35;;;;;;;16.02;11.45;;;;;;;10.12;100.00;67901.03;5006482;28;20054;-86
2022/05/25 01:33:18;;;;;;;15.18;11.00;;;;;;;10.09;100.00;67897.63;5006204;28;20050;-86
2022/05/25 01:35:59;;;;;;;15.55;11.98;;;;;;;10.10;100.00;67895.56;5003672;28;20050;-86
2022/05/25 01:38:40;;;;;;;17.25;12.60;;;;;;;10.12;100.00;67897.81;4992725;28;20081;-86
2022/05/25 01:41:13;;;;;;;13.77;11.90;;;;;;;10.09;100.00;67894.41;4979542;28;20038;-84
2022/05/25 01:44:03;;;;;;;13.23;11.57;;;;;;;10.04;100.00;67888.72;4989008;28;20472;-85
2022/05/25 01:46:33;;;;;;;16.00;12.13;;;;;;;10.06;100.00;67894.22;4965330;28;20046;-86
2022/05/25 01:49:05;;;;;;;15.63;11.60;;;;;;;10.06;100.00;67894.22;4983713;28;20046;-85
2022/05/25 01:51:35;;;;;;;14.57;12.32;;;;;;;10.12;100.00;67903.69;4987977;28;20395;-84
2022/05/25 01:54:03;;;;;;;16.80;11.95;;;;;;;10.12;100.00;67898.38;4996472;28;20046;-84
2022/05/25 01:56:32;;;;;;;16.70;11.67;;;;;;;10.04;100.00;67881.34;4990137;28;20049;-85
2022/05/25 01:59:00;;;;;;;17.92;13.43;;;;;;;10.01;100.00;67885.91;4989679;28;20041;-85
2022/05/25 02:01:26;;;;;;;18.42;14.35;;;;;;;9.98;100.00;67882.50;4997342;28;20388;-85
2022/05/25 02:06:59;;;;;;;18.20;13.50;;;;;;;9.82;100.00;67867.03;5005508;28;20121;-86
2022/05/25 02:09:42;;;;;;;17.30;13.38;;;;;;;9.74;100.00;67855.84;4978972;28;20046;-85
2022/05/25 02:12:30;;;;;;;18.05;14.55;;;;;;;9.65;100.00;67846.22;4990750;28;20043;-85
2022/05/25 02:15:10;;;;;;;23.80;14.88;;;;;;;9.61;100.00;67841.09;4995211;28;20049;-86
2022/05/25 02:18:11;;;;;;;17.60;14.63;;;;;;;9.51;100.00;67832.44;4973834;28;20050;-86
2022/05/25 02:20:50;;;;;;;20.63;15.68;;;;;;;9.48;100.00;67827.50;4957488;28;20050;-85
2022/05/25 02:23:38;;;;;;;18.15;14.43;;;;;;;9.44;100.00;67825.06;5002282;28;20113;-86
2022/05/25 02:26:12;;;;;;;17.70;13.52;;;;;;;9.44;100.00;67822.97;4992251;28;20050;-85
2022/05/25 02:28:50;;;;;;;17.38;14.77;;;;;;;9.38;100.00;67815.59;4990526;28;20372;-86
2022/05/25 02:31:20;;;;;;;17.02;13.75;;;;;;;9.38;100.00;67820.91;4988290;28;20081;-85
2022/05/25 02:33:49;;;;;;;19.90;15.20;;;;;;;9.30;100.00;67809.19;4998381;28;20042;-86
2022/05/25 02:36:17;;;;;;;18.75;15.45;;;;;;;9.30;100.00;67809.19;5009689;28;20113;-86
2022/05/25 02:38:43;;;;;;;18.73;14.43;;;;;;;9.26;100.00;67803.13;5005373;28;20041;-86
2022/05/25 02:41:26;;;;;;;19.42;15.05;;;;;;;9.20;100.00;67796.31;4996166;28;20094;-86
2022/05/25 02:43:51;;;;;;;20.65;14.82;;;;;;;9.19;100.00;67797.84;4996406;28;20056;-86
2022/05/25 02:46:16;;;;;;;17.98;14.15;;;;;;;9.18;100.00;67796.72;5004478;28;20507;-86
2022/05/25 02:48:42;;;;;;;18.25;14.60;;;;;;;9.12;100.00;67789.94;4995258;28;20046;-86
2022/05/25 02:51:08;;;;;;;18.92;15.65;;;;;;;9.13;100.00;67787.84;4993912;28;20042;-86
2022/05/25 02:53:34;;;;;;;19.67;15.15;;;;;;;9.11;100.00;67786.13;4988895;28;20042;-86
2022/05/25 02:56:00;;;;;;;21.10;15.80;;;;;;;9.09;100.00;67786.53;4991201;28;20615;-85
2022/05/25 02:58:27;;;;;;;20.65;16.42;;;;;;;9.11;100.00;67786.13;5005591;28;20034;-85
2022/05/25 03:00:53;;;;;;;20.85;17.27;;;;;;;9.15;100.00;67790.09;4995570;28;20076;-85
2022/05/25 03:03:18;;;;;;;23.08;16.35;;;;;;;9.14;100.00;67789.53;4987982;28;20480;-85
2022/05/25 03:05:43;;;;;;;24.27;18.45;;;;;;;9.11;100.00;67786.13;4989208;28;20053;-85
2022/05/25 03:08:09;;;;;;;23.05;18.10;;;;;;;9.14;100.00;67789.53;4998025;28;20069;-86
2022/05/25 03:10:34;;;;;;;22.80;17.90;;;;;;;9.13;100.00;67787.84;5005316;28;20125;-86
2022/05/25 03:13:01;;;;;;;23.25;18.60;;;;;;;9.16;100.00;67794.44;4995942;28;20050;-85
2022/05/25 03:15:27;;;;;;;23.27;18.80;;;;;;;9.13;100.00;67787.84;4988551;28;20104;-86
2022/05/25 03:17:52;;;;;;;22.38;17.30;;;;;;;9.10;100.00;67785.00;4981479;28;20462;-86
2022/05/25 03:20:18;;;;;;;25.02;17.83;;;;;;;9.06;100.00;67785.19;4995500;28;20081;-86
2022/05/25 03:22:44;;;;;;;19.13;16.80;;;;;;;9.06;100.00;67780.44;4986242;28;20049;-85
2022/05/25 03:25:11;;;;;;;19.63;16.33;;;;;;;9.04;100.00;67778.75;4988077;28;20053;-86
2022/05/25 03:27:37;;;;;;;20.92;16.42;;;;;;;9.04;100.00;67778.19;5008874;28;20045;-86
2022/05/25 03:30:04;;;;;;;20.20;16.48;;;;;;;8.99;100.00;67775.75;5003573;28;20042;-86
2022/05/25 03:32:30;;;;;;;20.00;15.88;;;;;;;9.00;100.00;67778.97;5000011;28;20121;-86
2022/05/25 03:34:55;;;;;;;20.92;16.08;;;;;;;9.06;100.00;67782.53;4999724;28;20321;-85
2022/05/25 03:37:20;;;;;;;22.50;16.75;;;;;;;9.04;100.00;67778.75;4985640;28;20046;-85
2022/05/25 03:39:46;;;;;;;20.77;16.17;;;;;;;9.04;100.00;67778.19;4983383;28;20043;-85
2022/05/25 03:42:15;;;;;;;19.85;17.25;;;;;;;8.98;100.00;67774.06;4983359;28;20109;-85
2022/05/25 03:44:41;;;;;;;20.38;17.00;;;;;;;8.94;100.00;67770.06;4989910;28;20070;-85
2022/05/25 03:47:06;;;;;;;21.33;17.92;;;;;;;9.01;100.00;67785.97;4982485;28;20708;-84
2022/05/25 03:49:31;;;;;;;21.35;17.55;;;;;;;9.04;100.00;67778.75;4985519;28;20049;-85
2022/05/25 03:51:57;;;;;;;24.13;18.25;;;;;;;9.07;100.00;67781.03;5001425;28;20598;-84
2022/05/25 03:54:22;;;;;;;21.63;18.15;;;;;;;9.08;100.00;67787.47;4981955;28;20118;-84
2022/05/25 03:56:48;;;;;;;22.08;17.50;;;;;;;9.04;100.00;67778.75;4980218;28;20050;-85
2022/05/25 03:59:13;;;;;;;24.67;18.95;;;;;;;9.10;100.00;67785.00;4975684;28;20079;-85
2022/05/25 04:01:39;;;;;;;23.27;18.02;;;;;;;9.13;100.00;67788.41;4983796;28;20677;-85
2022/05/25 04:04:05;;;;;;;23.63;17.30;;;;;;;9.13;100.00;67791.06;4990104;28;20057;-84
2022/05/25 04:06:31;;;;;;;21.33;16.60;;;;;;;9.19;100.00;67794.63;4990149;28;20046;-85
2022/05/25 04:08:56;;;;;;;20.27;15.95;;;;;;;9.18;100.00;67796.16;4989109;28;20049;-84
2022/05/25 04:11:22;;;;;;;25.45;18.83;;;;;;;9.23;100.00;67799.72;4996512;28;21056;-86
2022/05/25 04:13:48;;;;;;;25.88;17.90;;;;;;;9.25;100.00;67801.44;4992063;28;20511;-86
2022/05/25 04:16:14;;;;;;;24.08;19.27;;;;;;;9.27;100.00;67803.69;4992447;28;20053;-85
2022/05/25 04:18:39;;;;;;;25.58;18.75;;;;;;;9.29;100.00;67808.03;4980303;28;20034;-85
2022/05/25 04:21:04;;;;;;;23.58;19.60;;;;;;;9.26;100.00;67805.78;4982864;28;20049;-85
2022/05/25 04:23:30;;;;;;;24.23;19.05;;;;;;;9.32;100.00;67811.44;4981501;28;20104;-85
2022/05/25 04:25:56;;;;;;;25.23;19.40;;;;;;;9.37;100.00;67815.03;4981331;28;20152;-85
2022/05/25 04:28:22;;;;;;;27.33;19.42;;;;;;;9.46;100.00;67824.66;4985691;28;20047;-85
2022/05/25 04:30:48;;;;;;;25.50;19.58;;;;;;;9.54;100.00;67833.75;4985237;28;20038;-85
2022/05/25 04:33:14;;;;;;;25.35;18.48;;;;;;;9.64;100.00;67844.53;4985147;28;20037;-86
2022/05/25 04:35:40;;;;;;;22.75;18.58;;;;;;;9.69;100.00;67850.19;4992602;28;20057;-85
2022/05/25 04:38:06;;;;;;;25.60;17.30;;;;;;;9.75;100.00;67856.97;4985506;28;20038;-85
2022/05/25 04:40:33;;;;;;;23.95;16.42;;;;;;;9.84;100.00;67869.84;4985828;28;20070;-85
2022/05/25 04:43:02;;;;;;;22.90;18.20;;;;;;;9.91;100.00;67877.22;4972015;28;20121;-85
2022/05/25 04:45:28;;;;;;;22.73;17.15;;;;;;;;;;4979010;28;20042;-86
2022/05/25 04:47:58;;;;;;;21.08;16.25;;;;;;;9.99;100.00;67883.66;4981442;28;20045;-86
2022/05/25 04:50:27;;;;;;;20.60;15.63;;;;;;;10.02;100.00;67889.72;4982127;28;20050;-85
2022/05/25 04:52:54;;;;;;;18.90;14.23;;;;;;;10.07;100.00;67892.13;4963133;28;20553;-87
2022/05/25 04:58:04;;;;;;;20.20;14.85;;;;;;;10.17;100.00;67906.72;4991894;28;20089;-87
2022/05/25 05:00:30;;;;;;;19.35;14.18;;;;;;;10.24;100.00;67913.53;4976983;28;20047;-87
2022/05/25 05:02:55;;;;;;;20.35;14.38;;;;;;;10.29;100.00;67917.13;4984946;28;20061;-87
2022/05/25 05:05:21;;;;;;;19.55;14.50;;;;;;;10.31;100.00;67921.50;4990687;28;20047;-87
2022/05/25 05:07:46;;;;;;;18.58;14.65;;;;;;;10.36;100.00;67925.06;5000555;28;20046;-87
2022/05/25 05:10:12;;;;;;;20.33;14.73;;;;;;;;;;4997027;28;20509;-87
2022/05/25 05:12:39;;;;;;;20.40;16.70;;;;;;;10.47;100.00;67937.00;4991538;28;20950;-87
2022/05/25 05:15:05;;;;;;;22.83;15.05;;;;;;;10.52;100.00;67942.09;4993931;28;20046;-87
2022/05/25 05:17:30;;;;;;;19.42;14.48;;;;;;;10.57;100.00;67947.75;4988271;28;20035;-87
2022/05/25 05:19:56;;;;;;;18.58;14.23;;;;;;;10.67;100.00;67959.09;4973402;28;20709;-88
2022/05/25 05:22:22;;;;;;;17.40;13.40;;;;;;;10.70;100.00;67962.50;4979139;28;20066;-87
2022/05/25 05:24:47;;;;;;;20.10;14.10;;;;;;;;;;4985293;28;20566;-87
2022/05/25 05:27:12;;;;;;;20.52;14.02;;;;;;;;;;4986184;28;20042;-87
2022/05/25 05:29:38;;;;;;;18.90;14.60;;;;;;;;;;4981056;28;20053;-87
2022/05/25 05:32:03;;;;;;;20.23;14.60;;;;;;;10.95;100.00;67990.31;4985922;28;20662;-87
2022/05/25 05:34:29;;;;;;;19.23;13.85;;;;;;;10.99;100.00;68000.19;4985858;28;20038;-87
2022/05/25 05:36:59;;;;;;;17.05;14.05;;;;;;;;;;4985946;28;20512;-86
2022/05/25 05:39:29;;;;;;;19.02;14.60;;;;;;;11.10;100.00;68009.44;4985228;28;20046;-87
2022/05/25 05:42:06;;;;;;;20.73;14.32;;;;;;;11.17;100.00;68017.41;4985876;28;20089;-87
2022/05/25 05:44:49;;;;;;;16.73;13.32;;;;;;;11.23;100.00;68020.97;4984417;28;20038;-86
2022/05/25 05:47:22;;;;;;;20.90;14.05;;;;;;;11.30;100.00;68028.91;4999504;28;20695;-86
2022/05/25 05:49:48;;;;;;;19.42;14.43;;;;;;;11.37;100.00;68038.97;4987043;28;20046;-86
2022/05/25 05:52:13;;;;;;;17.20;14.27;;;;;;;;;;4984973;28;20133;-87
2022/05/25 05:54:39;;;;;;;20.17;14.15;;;;;;;11.52;100.00;68053.91;4984598;28;20049;-86
2022/05/25 05:57:05;;;;;;;16.73;14.38;;;;;;;11.59;100.00;68063.94;5001571;28;20039;-87
2022/05/25 05:59:30;;;;;;;19.88;14.48;;;;;;;11.69;100.00;68072.09;4987699;28;20046;-87
2022/05/25 06:01:56;;;;;;;18.45;13.65;;;;;;;11.75;100.00;68078.91;4984681;28;20279;-87
2022/05/25 06:04:22;;;;;;;15.80;11.95;;;;;;;11.77;100.00;68081.19;5001862;28;20061;-87
2022/05/25 06:06:47;;;;;;;14.88;11.77;;;;;;;;;;4987419;28;20527;-87
2022/05/25 06:09:13;;;;;;;18.80;14.10;;;;;;;11.85;100.00;68092.94;4986405;28;20140;-87
2022/05/25 06:11:41;;;;;;;14.82;12.13;;;;;;;11.90;99.45;68095.94;4987486;28;20053;-86
2022/05/25 06:14:07;;;;;;;15.73;12.35;;;;;;;;;;4987156;28;20049;-86
2022/05/25 06:19:29;;;;;;;15.98;11.50;;;;;;;12.06;99.55;68113.00;4986667;28;20079;-86
2022/05/25 06:22:22;;;;;;;16.13;11.25;;;;;;;12.12;99.04;68122.50;4987921;28;20050;-87
2022/05/25 06:24:50;;;;;;;13.85;11.27;;;;;;;12.20;99.20;68128.91;4976079;28;20049;-87
2022/05/25 06:27:17;;;;;;;16.10;12.07;;;;;;;12.26;98.17;68135.16;4992907;28;20042;-87
2022/05/25 06:29:48;;;;;;;16.85;10.80;;;;;;;12.29;98.09;68139.16;4988630;28;20450;-86
2022/05/25 06:32:18;;;;;;;15.38;11.18;;;;;;;12.31;98.14;68141.41;4986001;28;20105;-87
2022/05/25 06:34:48;;;;;;;14.98;11.57;;;;;;;12.38;98.05;68149.38;4987455;28;20109;-87
2022/05/25 06:37:17;;;;;;;16.58;11.07;;;;;;;;;;4991558;28;20085;-87
2022/05/25 06:39:42;;;;;;;14.57;10.25;;;;;;;;;;4986468;28;20693;-87
2022/05/25 06:42:08;;;;;;;14.43;11.27;;;;;;;12.47;96.63;68158.47;4994190;28;20131;-87
2022/05/25 06:44:33;;;;;;;14.50;10.45;;;;;;;;;;4988873;28;20042;-87
2022/05/25 06:46:59;;;;;;;14.15;10.15;;;;;;;12.54;95.82;68166.41;5001956;28;20048;-87
2022/05/25 06:49:24;;;;;;;14.98;10.02;;;;;;;;;;5007492;28;20144;-87
2022/05/25 06:51:49;;;;;;;13.85;10.20;;;;;;;;;;4990005;28;20046;-88
2022/05/25 06:54:17;;;;;;;15.80;10.57;;;;;;;12.80;96.02;68195.97;4989928;28;20038;-87
2022/05/25 06:56:43;;;;;;;13.77;9.85;;;;;;;;;;5003744;28;20551;-87
2022/05/25 06:59:09;;;;;;;13.05;9.55;;;;;;;12.90;94.78;68206.78;4989430;28;20050;-88
2022/05/25 07:01:36;;;;;;;13.75;9.43;;;;;;;12.97;94.67;68216.81;4997676;28;20042;-87
2022/05/25 07:04:01;;;;;;;15.50;9.30;;;;;;;;;;4999649;28;20141;-87
2022/05/25 07:06:27;;;;;;;12.52;8.63;;;;;;;13.07;94.59;68226.09;5001796;28;20121;-87
2022/05/25 07:08:53;;;;;;;11.00;8.95;;;;;;;13.13;93.95;68232.34;4986520;28;20399;-87
2022/05/25 07:11:20;;;;;;;14.98;8.57;;;;;;;13.24;93.66;68244.88;4985936;28;20065;-87
2022/05/25 07:13:46;;;;;;;10.65;7.72;;;;;;;13.25;91.79;68246.03;4988568;28;20624;-87
2022/05/25 07:16:14;;;;;;;11.10;7.93;;;;;;;13.30;92.72;68251.72;4989416;28;20062;-87
2022/05/25 07:18:41;;;;;;;9.13;6.10;;;;;;;13.45;91.46;68270.31;5004513;28;20676;-88
2022/05/25 07:21:10;;;;;;;13.13;6.90;;;;;;;13.57;91.10;68280.72;5011793;23;20626;-79
2022/05/25 07:23:38;;;;;;;9.57;5.60;;;;;;;13.58;88.84;68277.09;5002462;28;20046;-79
2022/05/25 07:26:06;;;;;;;10.88;5.72;;;;;;;13.62;88.97;68281.63;5008546;28;20037;-79
2022/05/25 07:28:33;;;;;;;12.13;6.38;;;;;;;13.76;88.88;68302.91;5008699;28;20052;-79
2022/05/25 07:31:01;;;;;;;9.32;5.53;;;;;;;;;;5010792;28;20572;-79
2022/05/25 07:33:28;;;;;;;11.77;6.38;;;;;;;13.91;89.35;68318.84;5007609;28;20118;-79
2022/05/25 07:35:53;;;;;;;8.27;6.03;;;;;;;14.03;88.53;68323.88;4992204;28;20076;-80
2022/05/25 07:38:18;;;;;;;11.27;6.13;;;;;;;;;;5006220;28;20042;-79
2022/05/25 07:40:45;;;;;;;6.05;5.32;;;;;;;14.08;87.41;68338.19;5004772;28;20042;-79
2022/05/25 07:43:16;;;;;;;9.43;5.53;;;;;;;14.10;86.53;68335.09;5009273;28;20038;-79
2022/05/25 07:45:44;;;;;;;8.50;5.70;;;;;;;14.05;85.87;68334.19;5011196;28;20042;-79
2022/05/25 07:48:10;;;;;;;9.30;5.73;;;;;;;13.99;86.06;68327.94;5005622;28;20037;-79
2022/05/25 07:50:35;;;;;;;8.25;5.70;;;;;;;14.07;87.56;68337.03;4996478;28;20050;-80
2022/05/25 07:53:01;;;;;;;7.95;5.85;;;;;;;;;;5004517;28;20050;-79
2022/05/25 07:55:27;;;;;;;11.55;6.43;;;;;;;14.23;86.90;68349.31;5007808;28;20116;-79
2022/05/25 07:57:53;;;;;;;7.68;5.20;;;;;;;14.41;86.29;68374.59;5006113;28;20129;-79
2022/05/25 08:00:20;;;;;;;9.45;5.88;;;;;;;14.45;85.82;68373.81;5009051;28;20057;-79
2022/05/25 08:05:43;;;;;;;11.38;6.10;;;;;;;14.51;85.47;68385.41;4989641;28;20046;-79
2022/05/25 08:08:15;;;;;;;9.68;6.43;;;;;;;14.63;84.85;68393.75;4989801;28;20042;-79
2022/05/25 08:10:44;;;;;;;8.98;5.28;;;;;;;14.63;83.64;68399.66;4988275;28;20518;-79
2022/05/25 08:13:11;;;;;;;7.20;5.53;;;;;;;;;;5006332;28;20034;-79
2022/05/25 08:15:42;;;;;;;12.38;6.18;;;;;;;14.51;82.55;68385.97;5009390;28;20104;-79
2022/05/25 08:18:08;;;;;;;9.02;5.90;;;;;;;14.64;82.71;68400.22;5009108;28;20103;-79
2022/05/25 08:20:34;;;;;;;8.23;5.40;;;;;;;;;;4999860;28;20521;-79
2022/05/25 08:23:02;;;;;;;11.07;6.70;;;;;;;14.74;82.11;68413.75;5004923;28;20058;-79
2022/05/25 08:25:27;;;;;;;7.30;5.85;;;;;;;14.77;82.36;68414.47;4999127;28;20817;-79
2022/05/25 08:27:53;;;;;;;6.10;5.38;;;;;;;;;;5002627;28;20076;-79
2022/05/25 08:30:19;;;;;;;7.23;4.87;;;;;;;;;;5002017;28;20042;-79
2022/05/25 08:32:45;;;;;;;5.90;3.92;;;;;;;14.77;78.98;68409.13;4995932;28;20290;-79
2022/05/25 08:35:13;;;;;;;5.38;3.78;;;;;;;14.81;77.76;68419.03;5008587;28;20046;-79
2022/05/25 08:37:41;;;;;;;6.53;4.00;;;;;;;14.84;77.36;68425.13;5003396;28;20046;-79
2022/05/25 08:40:08;;;;;;;8.60;4.25;;;;;;;14.94;77.42;68427.91;4999171;28;20061;-79
2022/05/25 08:42:36;;;;;;;10.23;4.95;;;;;;;;;;5006497;28;20045;-79
2022/05/25 08:45:02;;;;;;;5.68;3.75;;;;;;;15.18;77.65;68451.97;5006400;28;20388;-79
2022/05/25 08:47:27;;;;;;;7.85;3.70;;;;;;;;;;4999709;28;20041;-79
2022/05/25 08:49:55;;;;;;;5.43;2.90;;;;;;;15.15;75.21;68451.25;5004450;28;20049;-79
2022/05/25 08:52:29;;;;;;;4.90;2.90;;;;;;;15.21;74.81;68463.44;4996626;28;20285;-79
2022/05/25 08:54:55;;;;;;;6.80;2.83;;;;;;;;;;4998608;28;20490;-79
2022/05/25 08:57:26;;;;;;;5.80;2.92;;;;;;;;;;5007679;28;20049;-79
2022/05/25 09:00:05;;;;;;;4.63;2.50;;;;;;;;;;5000045;28;20049;-79
2022/05/25 09:02:40;;;;;;;5.53;2.70;;;;;;;15.70;74.21;68512.78;5006492;28;20046;-79
2022/05/25 09:05:18;;;;;;;5.03;2.55;;;;;;;15.77;70.93;68526.13;5023487;28;20045;-79
2022/05/25 09:08:02;;;;;;;4.38;2.67;;;;;;;15.73;71.67;68516.75;5002135;28;20050;-80
2022/05/25 09:10:32;;;;;;;7.20;2.30;;;;;;;15.73;71.69;68516.75;5003057;28;20046;-80
2022/05/25 09:13:09;;;;;;;4.93;2.38;;;;;;;15.82;71.10;68531.25;5007939;28;20117;-79
2022/05/25 09:16:15;;;;;;;7.10;2.70;;;;;;;;;;5008000;28;20112;-79
2022/05/25 09:18:33;;;;;;;5.28;2.80;;;;;;;15.97;71.47;68540.31;5007701;28;20131;-79
2022/05/25 09:21:00;;;;;;;4.78;2.35;;;;;;;16.06;71.89;68550.00;5006951;28;20864;-81
2022/05/25 09:23:26;;;;;;;7.55;2.20;;;;;;;;;;5007173;28;20671;-79
2022/05/25 09:25:51;;;;;;;4.70;2.08;;;;;;;16.23;68.60;68572.63;5006888;28;20050;-79
2022/05/25 09:28:19;;;;;;;4.15;2.00;;;;;;;;;;5007619;28;20502;-80
2022/05/25 09:30:47;;;;;;;6.63;2.50;;;;;;;;;;5004711;28;20042;-80
2022/05/25 09:33:19;;;;;;;5.55;2.50;;;;;;;;;;5007372;28;20038;-79
2022/05/25 09:35:50;;;;;;;4.72;2.30;;;;;;;16.28;67.63;68577.72;5005361;28;20544;-81
2022/05/25 09:38:54;;;;;;;5.40;1.88;;;;;;;16.34;67.52;68584.00;5007415;28;20038;-80
2022/05/25 09:41:24;;;;;;;6.10;2.05;;;;;;;16.35;67.30;68585.72;5007605;28;20042;-80
2022/05/25 09:43:56;;;;;;;6.80;2.35;;;;;;;16.43;68.53;68600.22;5001397;28;20056;-79
2022/05/25 09:46:24;;;;;;;3.47;2.15;;;;;;;16.42;66.81;68593.13;5001965;28;20046;-80
2022/05/25 09:48:54;;;;;;;4.10;2.37;;;;;;;16.43;66.74;68594.84;5004002;28;20042;-79
2022/05/25 09:51:34;;;;;;;5.85;2.28;;;;;;;;;;5021741;28;20281;-80
2022/05/25 09:54:19;;;;;;;4.47;2.30;;;;;;;16.79;66.67;68634.75;4989040;28;20050;-79
2022/05/25 09:56:51;;;;;;;4.53;2.60;;;;;;;16.83;65.17;68644.72;4987793;28;20057;-79
2022/05/25 09:59:28;;;;;;;5.30;2.28;;;;;;;16.88;67.18;68644.47;4995832;28;20157;-80
2022/05/25 10:01:54;;;;;;;5.55;2.70;;;;;;;16.88;66.40;68645.03;4996998;28;20043;-80
2022/05/25 10:04:51;;;;;;;6.07;3.05;;;;;;;16.69;65.58;68623.91;4993332;28;20415;-79
2022/05/25 10:07:19;;;;;;;3.65;2.17;;;;;;;;;;4996934;28;20073;-79
2022/05/25 10:09:49;;;;;;;5.20;2.78;;;;;;;16.94;64.43;68648.03;5009066;28;20045;-79
2022/05/25 10:12:40;;;;;;;6.03;2.47;;;;;;;17.07;65.03;68662.88;5006739;28;20521;-80
2022/05/25 10:15:07;;;;;;;5.05;2.67;;;;;;;;;;5009603;28;20034;-80
2022/05/25 10:17:40;;;;;;;5.55;3.03;;;;;;;16.94;65.22;68656.09;5003981;28;20065;-79
2022/05/25 10:20:28;;;;;;;3.78;2.50;;;;;;;16.87;64.12;68643.31;5010476;28;20045;-80
2022/05/25 10:23:17;;;;;;;6.15;2.40;;;;;;;;;;4992897;28;20336;-79
2022/05/25 10:25:45;;;;;;;7.53;2.80;;;;;;;16.92;63.77;68649.59;5003499;28;20052;-79
2022/05/25 10:28:22;;;;;;;5.68;3.08;;;;;;;;;;5009933;28;20034;-80
2022/05/25 10:37:10;;;;;;;4.90;2.67;;;;;;;17.01;63.10;68659.28;4960604;28;20038;-79
2022/05/25 10:39:37;;;;;;;6.07;2.60;;;;;;;17.08;63.50;68666.69;4976727;28;20108;-79
2022/05/25 10:42:22;;;;;;;4.78;2.58;;;;;;;16.91;62.60;68647.88;4983427;28;20556;-79
2022/05/25 10:45:04;;;;;;;6.18;2.55;;;;;;;16.89;63.00;68646.19;4988530;28;20113;-79
2022/05/25 10:47:48;;;;;;;7.20;2.67;;;;;;;;;;4987252;28;20046;-79
2022/05/25 10:50:32;;;;;;;5.15;2.30;;;;;;;;;;4998111;28;20761;-80
2022/05/25 10:53:14;;;;;;;5.20;2.17;;;;;;;16.81;61.97;68641.88;4985774;28;20038;-79
2022/05/25 10:56:08;;;;;;;4.38;2.00;;;;;;;16.81;64.10;68642.44;4986103;28;20419;-79
2022/05/25 10:58:59;;;;;;;4.90;1.45;;;;;;;16.61;63.29;68614.78;4990666;28;20048;-79
2022/05/25 11:01:35;;;;;;;4.28;2.00;;;;;;;16.44;62.97;68600.78;5002598;28;20034;-79
2022/05/25 11:04:08;;;;;;;5.95;2.20;;;;;;;16.44;64.22;68600.78;5007202;28;20180;-79
2022/05/25 11:06:47;;;;;;;4.60;1.98;;;;;;;16.45;63.71;68596.53;5008466;28;20045;-79
2022/05/25 11:09:18;;;;;;;2.47;1.50;;;;;;;16.41;62.28;68592.56;5011934;28;20042;-79
2022/05/25 11:11:58;;;;;;;4.57;1.98;;;;;;;;;;5009688;28;20060;-80
2022/05/25 11:14:24;;;;;;;5.75;2.50;;;;;;;16.30;67.99;68585.38;5008135;28;20046;-78
2022/05/25 11:17:07;;;;;;;4.20;2.78;;;;;;;16.18;68.45;68574.41;5006802;28;20061;-79
2022/05/25 11:19:59;;;;;;;6.45;2.80;;;;;;;16.13;69.63;68560.63;5006106;28;20137;-79
2022/05/25 11:22:43;;;;;;;4.30;2.78;;;;;;;16.15;69.90;68568.88;5009101;28;20045;-79
2022/05/25 11:25:23;;;;;;;5.50;2.58;;;;;;;16.17;68.20;68571.16;5000250;28;20058;-78
2022/05/25 11:28:21;;;;;;;3.42;1.90;;;;;;;16.32;67.36;68587.69;4996208;28;20082;-79
2022/05/25 11:30:46;;;;;;;3.28;1.85;;;;;;;16.78;66.22;68633.63;4964285;28;20061;-79
2022/05/25 11:33:39;;;;;;;3.40;1.70;;;;;;;17.01;61.44;68664.09;5002519;28;20068;-79
2022/05/25 11:36:04;;;;;;;4.75;1.60;;;;;;;;;;5005028;28;20053;-79
2022/05/25 11:38:47;;;;;;;2.90;1.57;;;;;;;17.15;59.67;68674.69;4999768;28;20498;-79
2022/05/25 11:41:36;;;;;;;3.92;1.83;;;;;;;17.30;60.60;68686.41;4999267;28;20353;-79
2022/05/25 11:44:49;;;;;;;4.35;1.65;;;;;;;17.27;61.82;68688.38;4998540;28;20619;-80
2022/05/25 11:47:20;;;;;;;3.10;1.83;;;;;;;;;;4946042;28;20403;-79
2022/05/25 11:50:09;;;;;;;3.33;1.58;;;;;;;17.03;62.84;68658.31;4992788;28;20053;-80
2022/05/25 11:52:40;;;;;;;2.60;1.70;;;;;;;16.96;61.60;68647.63;4994201;28;20093;-79
2022/05/25 11:55:26;;;;;;;5.00;1.73;;;;;;;;;;4999558;28;20042;-79
2022/05/25 11:58:02;;;;;;;5.93;1.58;;;;;;;16.97;60.32;68654.16;4998746;28;20474;-80
2022/05/25 12:00:49;;;;;;;3.08;1.50;;;;;;;17.01;59.73;68658.72;5001207;28;20064;-79
2022/05/25 12:03:26;;;;;;;2.78;0.90;;;;;;;17.02;58.08;68654.47;4999776;28;20050;-81
2022/05/25 12:06:07;;;;;;;2.92;1.27;;;;;;;;;;4974973;28;20047;-81
2022/05/25 12:08:51;;;;;;;2.33;1.10;;;;;;;;;;5000406;28;20038;-81
2022/05/25 12:11:17;;;;;;;4.05;1.27;;;;;;;17.41;58.87;68703.22;4990850;28;20034;-80
2022/05/25 12:14:13;;;;;;;4.25;1.35;;;;;;;17.71;58.76;68734.19;4997559;28;20128;-81
2022/05/25 12:16:40;;;;;;;4.05;1.50;;;;;;;;;;5008498;28;20042;-81
2022/05/25 12:19:15;;;;;;;3.80;1.30;;;;;;;17.65;58.18;68727.91;5004034;28;20464;-81
2022/05/25 12:22:05;;;;;;;4.95;1.40;;;;;;;17.67;58.57;68732.88;4991540;28;20073;-81
2022/05/25 12:24:40;;;;;;;4.40;1.48;;;;;;;17.70;59.96;68736.31;5005074;28;20061;-79
2022/05/25 12:27:14;;;;;;;8.15;1.60;;;;;;;17.64;58.63;68728.88;4997828;28;20048;-80
2022/05/25 12:29:44;;;;;;;4.50;1.55;;;;;;;17.55;58.99;68719.16;4999448;28;20049;-80